sensor_id;sensor_type;location;lat;lon;timestamp;pressure;altitude;pressure_sealevel;temperature;humidity
11448;BME280;43755;49.736;8.734;2022-09-21T00:00:00;98707.53;;;6.44;100.00
11448;BME280;43755;49.736;8.734;2022-09-21T00:02:01;98705.84;;;6.39;100.00
11448;BME280;43755;49.736;8.734;2022-09-21T00:04:04;98702.47;;;6.31;100.00
11448;BME280;43755;49.736;8.734;2022-09-21T00:06:08;98703.41;;;6.25;100.00
11448;BME280;43755;49.736;8.734;2022-09-21T00:08:12;98699.97;;;6.22;100.00
11448;BME280;43755;49.736;8.734;2022-09-21T00:10:14;98707.06;;;6.16;100.00
11448;BME280;43755;49.736;8.734;2022-09-21T00:12:16;98702.78;;;6.09;100.00
11448;BME280;43755;49.736;8.734;2022-09-21T00:14:18;98708.09;;;6.03;100.00
11448;BME280;43755;49.736;8.734;2022-09-21T00:16:20;98710.75;;;6.02;100.00
11448;BME280;43755;49.736;8.734;2022-09-21T00:18:22;98713.44;;;5.97;100.00
11448;BME280;43755;49.736;8.734;2022-09-21T00:20:26;98708.28;;;5.91;100.00
11448;BME280;43755;49.736;8.734;2022-09-21T00:22:28;98711.81;;;5.89;100.00
11448;BME280;43755;49.736;8.734;2022-09-21T00:24:29;98707.47;;;5.88;100.00
11448;BME280;43755;49.736;8.734;2022-09-21T00:26:31;98704.78;;;5.89;100.00
11448;BME280;43755;49.736;8.734;2022-09-21T00:28:32;98698.63;;;5.95;100.00
11448;BME280;43755;49.736;8.734;2022-09-21T00:30:34;98702.94;;;5.97;100.00
11448;BME280;43755;49.736;8.734;2022-09-21T00:32:36;98704.75;;;5.94;100.00
11448;BME280;43755;49.736;8.734;2022-09-21T00:34:38;98704.69;;;5.98;100.00
11448;BME280;43755;49.736;8.734;2022-09-21T00:36:41;98702.03;;;6.00;100.00
11448;BME280;43755;49.736;8.734;2022-09-21T00:38:43;98709.84;;;6.04;100.00
11448;BME280;43755;49.736;8.734;2022-09-21T00:40:45;98702.84;;;6.05;100.00
11448;BME280;43755;49.736;8.734;2022-09-21T00:42:46;98707.25;;;6.01;100.00
11448;BME280;43755;49.736;8.734;2022-09-21T00:44:48;98696.72;;;6.03;100.00
11448;BME280;43755;49.736;8.734;2022-09-21T00:46:52;98707.16;;;6.07;100.00
11448;BME280;43755;49.736;8.734;2022-09-21T00:48:54;98705.41;;;6.09;100.00
11448;BME280;43755;49.736;8.734;2022-09-21T00:50:58;98707.16;;;6.09;100.00
11448;BME280;43755;49.736;8.734;2022-09-21T00:53:04;98703.63;;;6.11;100.00
11448;BME280;43755;49.736;8.734;2022-09-21T00:55:10;98708.03;;;6.08;100.00
11448;BME280;43755;49.736;8.734;2022-09-21T00:57:14;98703.72;;;6.04;100.00
11448;BME280;43755;49.736;8.734;2022-09-21T00:59:17;98701.19;;;5.98;100.00
11448;BME280;43755;49.736;8.734;2022-09-21T01:01:19;98707.38;;;5.94;100.00
11448;BME280;43755;49.736;8.734;2022-09-21T01:03:21;98712.66;;;5.91;100.00
11448;BME280;43755;49.736;8.734;2022-09-21T01:05:22;98714.47;;;5.87;100.00
11448;BME280;43755;49.736;8.734;2022-09-21T01:07:26;98715.47;;;5.74;100.00
11448;BME280;43755;49.736;8.734;2022-09-21T01:09:29;98718.22;;;5.62;100.00
11448;BME280;43755;49.736;8.734;2022-09-21T01:11:33;98721.84;;;5.53;100.00
11448;BME280;43755;49.736;8.734;2022-09-21T01:13:48;98716.69;;;5.46;100.00
11448;BME280;43755;49.736;8.734;2022-09-21T01:15:58;98729.88;;;5.36;100.00
11448;BME280;43755;49.736;8.734;2022-09-21T01:18:10;98729.94;;;5.33;100.00
11448;BME280;43755;49.736;8.734;2022-09-21T01:20:33;98731.66;;;5.34;100.00
11448;BME280;43755;49.736;8.734;2022-09-21T01:22:51;98724.59;;;5.41;100.00
11448;BME280;43755;49.736;8.734;2022-09-21T01:25:06;98723.66;;;5.47;100.00
11448;BME280;43755;49.736;8.734;2022-09-21T01:27:28;98717.53;;;5.48;100.00
11448;BME280;43755;49.736;8.734;2022-09-21T01:29:38;98720.25;;;5.40;100.00
11448;BME280;43755;49.736;8.734;2022-09-21T01:31:49;98723.75;;;5.38;100.00
11448;BME280;43755;49.736;8.734;2022-09-21T01:33:54;98727.38;;;5.27;100.00
11448;BME280;43755;49.736;8.734;2022-09-21T01:36:00;98720.44;;;5.19;100.00
11448;BME280;43755;49.736;8.734;2022-09-21T01:38:05;98721.41;;;5.10;100.00
11448;BME280;43755;49.736;8.734;2022-09-21T01:40:11;98729.28;;;5.07;100.00
11448;BME280;43755;49.736;8.734;2022-09-21T01:42:15;98729.38;;;5.00;100.00
11448;BME280;43755;49.736;8.734;2022-09-21T01:44:20;98732.03;;;4.97;100.00
11448;BME280;43755;49.736;8.734;2022-09-21T01:46:27;98730.28;;;4.95;100.00
11448;BME280;43755;49.736;8.734;2022-09-21T01:48:33;98726.81;;;4.92;100.00
11448;BME280;43755;49.736;8.734;2022-09-21T01:50:39;98725.06;;;4.91;100.00
11448;BME280;43755;49.736;8.734;2022-09-21T01:52:44;98728.63;;;4.87;100.00
11448;BME280;43755;49.736;8.734;2022-09-21T01:54:50;98726.91;;;4.83;100.00
11448;BME280;43755;49.736;8.734;2022-09-21T01:56:56;98726.09;;;4.76;100.00
11448;BME280;43755;49.736;8.734;2022-09-21T01:59:05;98728.72;;;4.76;100.00
11448;BME280;43755;49.736;8.734;2022-09-21T02:01:09;98730.44;;;4.77;100.00
11448;BME280;43755;49.736;8.734;2022-09-21T02:03:18;98720.00;;;4.74;100.00
11448;BME280;43755;49.736;8.734;2022-09-21T02:05:23;98720.81;;;4.78;100.00
11448;BME280;43755;49.736;8.734;2022-09-21T02:07:26;98726.09;;;4.76;100.00
11448;BME280;43755;49.736;8.734;2022-09-21T02:09:28;98722.59;;;4.74;100.00
11448;BME280;43755;49.736;8.734;2022-09-21T02:11:30;98718.25;;;4.72;100.00
11448;BME280;43755;49.736;8.734;2022-09-21T02:13:36;98720.03;;;4.70;100.00
11448;BME280;43755;49.736;8.734;2022-09-21T02:15:50;98721.78;;;4.66;100.00
11448;BME280;43755;49.736;8.734;2022-09-21T02:18:03;98720.91;;;4.69;100.00
11448;BME280;43755;49.736;8.734;2022-09-21T02:20:16;98712.13;;;4.73;100.00
11448;BME280;43755;49.736;8.734;2022-09-21T02:22:25;98719.94;;;4.77;100.00
11448;BME280;43755;49.736;8.734;2022-09-21T02:24:37;98720.81;;;4.78;100.00
11448;BME280;43755;49.736;8.734;2022-09-21T02:26:44;98722.56;;;4.80;100.00
11448;BME280;43755;49.736;8.734;2022-09-21T02:28:52;98719.06;;;4.80;100.00
11448;BME280;43755;49.736;8.734;2022-09-21T02:31:05;98723.47;;;4.75;100.00
11448;BME280;43755;49.736;8.734;2022-09-21T02:33:18;98718.28;;;4.66;100.00
11448;BME280;43755;49.736;8.734;2022-09-21T02:35:31;98724.50;;;4.57;100.00
11448;BME280;43755;49.736;8.734;2022-09-21T02:37:40;98712.31;;;4.51;100.00
11448;BME280;43755;49.736;8.734;2022-09-21T02:39:49;98718.41;;;4.49;100.00
11448;BME280;43755;49.736;8.734;2022-09-21T02:42:00;98712.31;;;4.48;100.00
11448;BME280;43755;49.736;8.734;2022-09-21T02:44:06;98717.53;;;4.51;100.00
11448;BME280;43755;49.736;8.734;2022-09-21T02:46:13;98716.69;;;4.48;100.00
11448;BME280;43755;49.736;8.734;2022-09-21T02:48:19;98715.84;;;4.44;100.00
11448;BME280;43755;49.736;8.734;2022-09-21T02:50:27;98720.22;;;4.44;100.00
11448;BME280;43755;49.736;8.734;2022-09-21T02:52:33;98714.94;;;4.48;100.00
11448;BME280;43755;49.736;8.734;2022-09-21T02:54:38;98719.25;;;4.54;100.00
11448;BME280;43755;49.736;8.734;2022-09-21T02:56:41;98718.41;;;4.50;100.00
11448;BME280;43755;49.736;8.734;2022-09-21T02:58:46;98720.16;;;4.53;100.00
11448;BME280;43755;49.736;8.734;2022-09-21T03:00:49;98715.81;;;4.52;100.00
11448;BME280;43755;49.736;8.734;2022-09-21T03:02:51;98718.47;;;4.47;100.00
11448;BME280;43755;49.736;8.734;2022-09-21T03:04:52;98721.13;;;4.41;100.00
11448;BME280;43755;49.736;8.734;2022-09-21T03:06:55;98717.63;;;4.36;100.00
11448;BME280;43755;49.736;8.734;2022-09-21T03:08:57;98713.34;;;4.28;100.00
11448;BME280;43755;49.736;8.734;2022-09-21T03:10:58;98720.41;;;4.18;100.00
11448;BME280;43755;49.736;8.734;2022-09-21T03:13:00;98719.53;;;4.15;100.00
11448;BME280;43755;49.736;8.734;2022-09-21T03:15:01;98716.91;;;4.16;100.00
11448;BME280;43755;49.736;8.734;2022-09-21T03:17:03;98717.78;;;4.15;100.00
11448;BME280;43755;49.736;8.734;2022-09-21T03:19:04;98716.03;;;4.12;100.00
11448;BME280;43755;49.736;8.734;2022-09-21T03:21:06;98716.06;;;4.11;100.00
11448;BME280;43755;49.736;8.734;2022-09-21T03:23:09;98720.41;;;4.13;100.00
11448;BME280;43755;49.736;8.734;2022-09-21T03:25:10;98727.41;;;4.11;100.00
11448;BME280;43755;49.736;8.734;2022-09-21T03:27:12;98721.28;;;4.12;100.00
11448;BME280;43755;49.736;8.734;2022-09-21T03:29:14;98723.03;;;4.13;100.00
11448;BME280;43755;49.736;8.734;2022-09-21T03:31:16;98729.13;;;4.17;100.00
11448;BME280;43755;49.736;8.734;2022-09-21T03:33:19;98729.09;;;4.20;100.00
11448;BME280;43755;49.736;8.734;2022-09-21T03:35:22;98732.59;;;4.19;100.00
11448;BME280;43755;49.736;8.734;2022-09-21T03:37:24;98727.34;;;4.19;100.00
11448;BME280;43755;49.736;8.734;2022-09-21T03:39:27;98729.97;;;4.24;100.00
11448;BME280;43755;49.736;8.734;2022-09-21T03:41:29;98730.81;;;4.29;100.00
11448;BME280;43755;49.736;8.734;2022-09-21T03:43:30;98727.31;;;4.30;100.00
11448;BME280;43755;49.736;8.734;2022-09-21T03:45:32;98727.28;;;4.33;100.00
11448;BME280;43755;49.736;8.734;2022-09-21T03:47:33;98730.78;;;4.30;100.00
11448;BME280;43755;49.736;8.734;2022-09-21T03:49:34;98733.41;;;4.32;100.00
11448;BME280;43755;49.736;8.734;2022-09-21T03:51:37;98728.19;;;4.26;100.00
11448;BME280;43755;49.736;8.734;2022-09-21T03:53:39;98740.44;;;4.19;100.00
11448;BME280;43755;49.736;8.734;2022-09-21T03:55:42;98737.88;;;4.13;100.00
11448;BME280;43755;49.736;8.734;2022-09-21T03:57:44;98739.63;;;4.06;100.00
11448;BME280;43755;49.736;8.734;2022-09-21T03:59:45;98730.09;;;3.98;100.00
11448;BME280;43755;49.736;8.734;2022-09-21T04:01:47;98737.97;;;3.98;100.00
11448;BME280;43755;49.736;8.734;2022-09-21T04:03:48;98737.09;;;3.91;100.00
11448;BME280;43755;49.736;8.734;2022-09-21T04:05:50;98735.38;;;3.92;100.00
11448;BME280;43755;49.736;8.734;2022-09-21T04:07:53;98733.63;;;3.92;100.00
11448;BME280;43755;49.736;8.734;2022-09-21T04:09:55;98738.88;;;3.88;100.00
11448;BME280;43755;49.736;8.734;2022-09-21T04:11:58;98730.19;;;3.83;100.00
11448;BME280;43755;49.736;8.734;2022-09-21T04:13:59;98734.53;;;3.81;100.00
11448;BME280;43755;49.736;8.734;2022-09-21T04:16:01;98739.75;;;3.84;100.00
11448;BME280;43755;49.736;8.734;2022-09-21T04:18:02;98734.53;;;3.81;100.00
11448;BME280;43755;49.736;8.734;2022-09-21T04:20:05;98733.69;;;3.74;100.00
11448;BME280;43755;49.736;8.734;2022-09-21T04:22:08;98742.41;;;3.71;100.00
11448;BME280;43755;49.736;8.734;2022-09-21T04:24:11;98743.31;;;3.67;100.00
11448;BME280;43755;49.736;8.734;2022-09-21T04:26:18;98742.44;;;3.68;100.00
11448;BME280;43755;49.736;8.734;2022-09-21T04:28:22;98745.97;;;3.64;100.00
11448;BME280;43755;49.736;8.734;2022-09-21T04:30:23;98744.22;;;3.63;100.00
11448;BME280;43755;49.736;8.734;2022-09-21T04:32:25;98744.22;;;3.60;100.00
11448;BME280;43755;49.736;8.734;2022-09-21T04:34:26;98744.25;;;3.59;100.00
11448;BME280;43755;49.736;8.734;2022-09-21T04:36:28;98741.59;;;3.60;100.00
11448;BME280;43755;49.736;8.734;2022-09-21T04:38:31;98749.44;;;3.63;100.00
11448;BME280;43755;49.736;8.734;2022-09-21T04:40:32;98736.34;;;3.66;100.00
11448;BME280;43755;49.736;8.734;2022-09-21T04:42:34;98747.69;;;3.64;100.00
11448;BME280;43755;49.736;8.734;2022-09-21T04:44:37;98749.44;;;3.65;100.00
11448;BME280;43755;49.736;8.734;2022-09-21T04:46:38;98742.28;;;4.03;100.00
11448;BME280;43755;49.736;8.734;2022-09-21T04:48:40;98745.00;;;3.87;100.00
11448;BME280;43755;49.736;8.734;2022-09-21T04:50:41;98749.34;;;3.85;100.00
11448;BME280;43755;49.736;8.734;2022-09-21T04:52:42;98758.94;;;3.84;100.00
11448;BME280;43755;49.736;8.734;2022-09-21T04:54:44;98749.38;;;3.80;100.00
11448;BME280;43755;49.736;8.734;2022-09-21T04:56:46;98754.59;;;3.77;100.00
11448;BME280;43755;49.736;8.734;2022-09-21T04:58:47;98757.22;;;3.79;100.00
11448;BME280;43755;49.736;8.734;2022-09-21T05:00:51;98752.88;;;3.82;100.00
11448;BME280;43755;49.736;8.734;2022-09-21T05:02:54;98752.84;;;3.84;100.00
11448;BME280;43755;49.736;8.734;2022-09-21T05:04:55;98759.81;;;3.86;100.00
11448;BME280;43755;49.736;8.734;2022-09-21T05:06:57;98766.81;;;3.86;100.00
11448;BME280;43755;49.736;8.734;2022-09-21T05:08:58;98759.81;;;3.85;100.00
11448;BME280;43755;49.736;8.734;2022-09-21T05:11:17;98765.94;;;3.78;100.00
11448;BME280;43755;49.736;8.734;2022-09-21T05:13:19;98775.53;;;3.77;100.00
11448;BME280;43755;49.736;8.734;2022-09-21T05:15:20;98770.34;;;3.76;100.00
11448;BME280;43755;49.736;8.734;2022-09-21T05:17:23;98780.81;;;3.74;100.00
11448;BME280;43755;49.736;8.734;2022-09-21T05:19:24;98768.59;;;3.73;100.00
11448;BME280;43755;49.736;8.734;2022-09-21T05:21:26;98770.31;;;3.77;100.00
11448;BME280;43755;49.736;8.734;2022-09-21T05:23:29;98775.56;;;3.76;100.00
11448;BME280;43755;49.736;8.734;2022-09-21T05:25:31;98783.41;;;3.80;100.00
11448;BME280;43755;49.736;8.734;2022-09-21T05:27:32;98782.53;;;3.81;100.00
11448;BME280;43755;49.736;8.734;2022-09-21T05:29:34;98780.75;;;3.83;100.00
11448;BME280;43755;49.736;8.734;2022-09-21T05:31:40;98784.28;;;3.82;100.00
11448;BME280;43755;49.736;8.734;2022-09-21T05:33:50;98782.53;;;3.81;100.00
11448;BME280;43755;49.736;8.734;2022-09-21T05:35:59;98783.41;;;3.79;100.00
11448;BME280;43755;49.736;8.734;2022-09-21T05:38:07;98779.94;;;3.75;100.00
11448;BME280;43755;49.736;8.734;2022-09-21T05:40:11;98785.16;;;3.83;100.00
11448;BME280;43755;49.736;8.734;2022-09-21T05:42:13;98785.09;;;3.90;100.00
11448;BME280;43755;49.736;8.734;2022-09-21T05:44:15;98789.47;;;3.93;100.00
11448;BME280;43755;49.736;8.734;2022-09-21T05:46:19;98785.97;;;4.00;100.00
11448;BME280;43755;49.736;8.734;2022-09-21T05:48:26;98790.25;;;4.07;100.00
11448;BME280;43755;49.736;8.734;2022-09-21T05:50:42;98785.91;;;4.09;100.00
11448;BME280;43755;49.736;8.734;2022-09-21T05:52:53;98791.13;;;4.17;100.00
11448;BME280;43755;49.736;8.734;2022-09-21T05:55:02;98791.94;;;4.22;100.00
11448;BME280;43755;49.736;8.734;2022-09-21T05:57:12;98784.97;;;4.24;100.00
11448;BME280;43755;49.736;8.734;2022-09-21T05:59:41;98790.19;;;4.30;100.00
11448;BME280;43755;49.736;8.734;2022-09-21T06:01:57;98789.25;;;4.40;100.00
11448;BME280;43755;49.736;8.734;2022-09-21T06:04:01;98791.78;;;4.52;100.00
11448;BME280;43755;49.736;8.734;2022-09-21T06:06:06;98785.59;;;4.62;100.00
11448;BME280;43755;49.736;8.734;2022-09-21T06:08:08;98788.19;;;4.70;100.00
11448;BME280;43755;49.736;8.734;2022-09-21T06:10:11;98786.34;;;4.79;100.00
11448;BME280;43755;49.736;8.734;2022-09-21T06:12:13;98790.66;;;4.86;100.00
11448;BME280;43755;49.736;8.734;2022-09-21T06:14:14;98794.09;;;4.96;100.00
11448;BME280;43755;49.736;8.734;2022-09-21T06:16:16;98790.53;;;5.06;100.00
11448;BME280;43755;49.736;8.734;2022-09-21T06:18:17;98793.94;;;5.17;100.00
11448;BME280;43755;49.736;8.734;2022-09-21T06:20:18;98789.44;;;5.27;100.00
11448;BME280;43755;49.736;8.734;2022-09-21T06:22:21;98792.00;;;5.34;100.00
11448;BME280;43755;49.736;8.734;2022-09-21T06:24:23;98798.03;;;5.46;100.00
11448;BME280;43755;49.736;8.734;2022-09-21T06:26:26;98802.31;;;5.54;100.00
11448;BME280;43755;49.736;8.734;2022-09-21T06:28:27;98796.13;;;5.60;100.00
11448;BME280;43755;49.736;8.734;2022-09-21T06:30:29;98795.22;;;5.64;100.00
11448;BME280;43755;49.736;8.734;2022-09-21T06:32:32;98799.47;;;5.75;100.00
11448;BME280;43755;49.736;8.734;2022-09-21T06:34:33;98794.97;;;5.85;100.00
11448;BME280;43755;49.736;8.734;2022-09-21T06:36:35;98795.75;;;5.96;100.00
11448;BME280;43755;49.736;8.734;2022-09-21T06:38:38;98800.03;;;6.06;100.00
11448;BME280;43755;49.736;8.734;2022-09-21T06:40:40;98796.47;;;6.10;100.00
11448;BME280;43755;49.736;8.734;2022-09-21T06:42:41;98796.31;;;6.21;100.00
11448;BME280;43755;49.736;8.734;2022-09-21T06:44:43;98798.84;;;6.29;100.00
11448;BME280;43755;49.736;8.734;2022-09-21T06:46:44;98797.34;;;6.74;100.00
11448;BME280;43755;49.736;8.734;2022-09-21T06:48:46;98797.41;;;6.69;100.00
11448;BME280;43755;49.736;8.734;2022-09-21T06:50:48;98799.97;;;6.75;100.00
11448;BME280;43755;49.736;8.734;2022-09-21T06:52:50;98798.06;;;6.83;100.00
11448;BME280;43755;49.736;8.734;2022-09-21T06:54:52;98800.50;;;6.97;100.00
11448;BME280;43755;49.736;8.734;2022-09-21T06:56:54;98805.53;;;7.11;100.00
11448;BME280;43755;49.736;8.734;2022-09-21T06:58:55;98798.25;;;7.25;100.00
11448;BME280;43755;49.736;8.734;2022-09-21T07:00:57;98807.72;;;7.36;100.00
11448;BME280;43755;49.736;8.734;2022-09-21T07:02:58;98804.06;;;7.45;100.00
11448;BME280;43755;49.736;8.734;2022-09-21T07:05:00;98804.75;;;7.56;100.00
11448;BME280;43755;49.736;8.734;2022-09-21T07:07:01;98803.72;;;7.65;100.00
11448;BME280;43755;49.736;8.734;2022-09-21T07:09:03;98811.44;;;7.74;100.00
11448;BME280;43755;49.736;8.734;2022-09-21T07:11:06;98806.03;;;7.83;100.00
11448;BME280;43755;49.736;8.734;2022-09-21T07:13:08;98811.97;;;7.93;100.00
11448;BME280;43755;49.736;8.734;2022-09-21T07:15:09;98806.50;;;8.02;100.00
11448;BME280;43755;49.736;8.734;2022-09-21T07:17:11;98812.38;;;8.17;100.00
11448;BME280;43755;49.736;8.734;2022-09-21T07:19:13;98812.94;;;8.33;100.00
11448;BME280;43755;49.736;8.734;2022-09-21T07:21:15;98815.44;;;8.39;100.00
11448;BME280;43755;49.736;8.734;2022-09-21T07:23:18;98810.69;;;8.55;100.00
11448;BME280;43755;49.736;8.734;2022-09-21T07:25:21;98807.84;;;8.66;100.00
11448;BME280;43755;49.736;8.734;2022-09-21T07:27:24;98807.53;;;8.78;100.00
11448;BME280;43755;49.736;8.734;2022-09-21T07:29:26;98806.38;;;8.91;100.00
11448;BME280;43755;49.736;8.734;2022-09-21T07:31:27;98815.88;;;8.98;100.00
11448;BME280;43755;49.736;8.734;2022-09-21T07:33:29;98806.09;;;9.03;100.00
11448;BME280;43755;49.736;8.734;2022-09-21T07:35:33;98812.03;;;9.13;100.00
11448;BME280;43755;49.736;8.734;2022-09-21T07:37:34;98813.44;;;9.26;100.00
11448;BME280;43755;49.736;8.734;2022-09-21T07:39:36;98813.38;;;9.29;100.00
11448;BME280;43755;49.736;8.734;2022-09-21T07:41:38;98814.09;;;9.35;100.00
11448;BME280;43755;49.736;8.734;2022-09-21T07:43:41;98816.53;;;9.43;100.00
11448;BME280;43755;49.736;8.734;2022-09-21T07:45:42;98811.91;;;9.53;100.00
11448;BME280;43755;49.736;8.734;2022-09-21T07:47:43;98822.47;;;9.53;100.00
11448;BME280;43755;49.736;8.734;2022-09-21T07:49:45;98823.13;;;9.61;100.00
11448;BME280;43755;49.736;8.734;2022-09-21T07:51:47;98830.16;;;9.60;100.00
11448;BME280;43755;49.736;8.734;2022-09-21T07:53:53;98824.81;;;9.63;100.00
11448;BME280;43755;49.736;8.734;2022-09-21T07:55:59;98823.19;;;9.59;100.00
11448;BME280;43755;49.736;8.734;2022-09-21T07:58:01;98828.91;;;9.75;100.00
11448;BME280;43755;49.736;8.734;2022-09-21T08:00:21;98826.16;;;9.79;100.00
11448;BME280;43755;49.736;8.734;2022-09-21T08:02:23;98822.63;;;9.79;100.00
11448;BME280;43755;49.736;8.734;2022-09-21T08:04:24;98833.09;;;9.83;100.00
11448;BME280;43755;49.736;8.734;2022-09-21T08:06:28;98831.25;;;9.87;100.00
11448;BME280;43755;49.736;8.734;2022-09-21T08:08:32;98831.97;;;9.92;100.00
11448;BME280;43755;49.736;8.734;2022-09-21T08:10:33;98837.69;;;10.08;100.00
11448;BME280;43755;49.736;8.734;2022-09-21T08:12:35;98826.91;;;10.17;100.00
11448;BME280;43755;49.736;8.734;2022-09-21T08:14:36;98833.13;;;10.14;100.00
11448;BME280;43755;49.736;8.734;2022-09-21T08:16:39;98832.22;;;10.17;100.00
11448;BME280;43755;49.736;8.734;2022-09-21T08:18:40;98829.28;;;10.26;100.00
11448;BME280;43755;49.736;8.734;2022-09-21T08:20:42;98835.31;;;10.31;100.00
11448;BME280;43755;49.736;8.734;2022-09-21T08:22:44;98839.66;;;10.34;100.00
11448;BME280;43755;49.736;8.734;2022-09-21T08:24:45;98840.19;;;10.46;100.00
11448;BME280;43755;49.736;8.734;2022-09-21T08:26:47;98842.72;;;10.49;100.00
11448;BME280;43755;49.736;8.734;2022-09-21T08:28:52;98833.00;;;10.50;100.00
11448;BME280;43755;49.736;8.734;2022-09-21T08:30:58;98835.63;;;10.51;100.00
11448;BME280;43755;49.736;8.734;2022-09-21T08:33:01;98835.47;;;10.56;100.00
11448;BME280;43755;49.736;8.734;2022-09-21T08:35:03;98835.41;;;10.59;100.00
11448;BME280;43755;49.736;8.734;2022-09-21T08:37:04;98838.66;;;10.67;100.00
11448;BME280;43755;49.736;8.734;2022-09-21T08:39:06;98831.56;;;10.69;100.00
11448;BME280;43755;49.736;8.734;2022-09-21T08:41:14;98835.81;;;10.75;100.00
11448;BME280;43755;49.736;8.734;2022-09-21T08:43:21;98835.25;;;10.93;100.00
11448;BME280;43755;49.736;8.734;2022-09-21T08:45:32;98840.31;;;11.00;100.00
11448;BME280;43755;49.736;8.734;2022-09-21T08:47:37;98838.34;;;11.07;100.00
11448;BME280;43755;49.736;8.734;2022-09-21T08:49:45;98839.13;;;11.09;100.00
11448;BME280;43755;49.736;8.734;2022-09-21T08:51:50;98834.47;;;11.17;100.00
11448;BME280;43755;49.736;8.734;2022-09-21T08:53:56;98835.06;;;11.25;100.00
11448;BME280;43755;49.736;8.734;2022-09-21T08:55:59;98834.13;;;11.28;100.00
11448;BME280;43755;49.736;8.734;2022-09-21T08:58:02;98830.53;;;11.30;100.00
11448;BME280;43755;49.736;8.734;2022-09-21T09:00:12;98830.44;;;11.32;100.00
11448;BME280;43755;49.736;8.734;2022-09-21T09:02:32;98834.69;;;11.37;100.00
11448;BME280;43755;49.736;8.734;2022-09-21T09:04:48;98829.19;;;11.43;100.00
11448;BME280;43755;49.736;8.734;2022-09-21T09:07:04;98824.56;;;11.50;100.00
11448;BME280;43755;49.736;8.734;2022-09-21T09:09:30;98828.84;;;11.54;100.00
11448;BME280;43755;49.736;8.734;2022-09-21T09:11:46;98828.94;;;11.51;100.00
11448;BME280;43755;49.736;8.734;2022-09-21T09:14:13;98826.97;;;11.58;100.00
11448;BME280;43755;49.736;8.734;2022-09-21T09:16:28;98817.53;;;11.75;100.00
11448;BME280;43755;49.736;8.734;2022-09-21T09:18:41;98826.31;;;11.77;100.00
11448;BME280;43755;49.736;8.734;2022-09-21T09:20:47;98822.81;;;11.77;100.00
11448;BME280;43755;49.736;8.734;2022-09-21T09:23:01;98825.13;;;11.86;100.00
11448;BME280;43755;49.736;8.734;2022-09-21T09:25:15;98827.03;;;11.82;100.00
11448;BME280;43755;49.736;8.734;2022-09-21T09:27:18;98830.22;;;11.92;100.00
11448;BME280;43755;49.736;8.734;2022-09-21T09:29:28;98821.13;;;11.99;100.00
11448;BME280;43755;49.736;8.734;2022-09-21T09:31:33;98815.47;;;12.08;100.00
11448;BME280;43755;49.736;8.734;2022-09-21T09:33:43;98819.34;;;12.24;100.00
11448;BME280;43755;49.736;8.734;2022-09-21T09:35:51;98819.66;;;12.15;100.00
11448;BME280;43755;49.736;8.734;2022-09-21T09:38:00;98815.16;;;12.17;100.00
11448;BME280;43755;49.736;8.734;2022-09-21T09:40:05;98811.25;;;12.27;100.00
11448;BME280;43755;49.736;8.734;2022-09-21T09:42:19;98816.97;;;12.40;100.00
11448;BME280;43755;49.736;8.734;2022-09-21T09:44:41;98810.19;;;12.55;100.00
11448;BME280;43755;49.736;8.734;2022-09-21T09:46:55;98812.56;;;12.62;100.00
11448;BME280;43755;49.736;8.734;2022-09-21T09:49:12;98802.97;;;12.60;98.90
11448;BME280;43755;49.736;8.734;2022-09-21T09:51:16;98806.31;;;12.65;95.00
11448;BME280;43755;49.736;8.734;2022-09-21T09:53:20;98800.91;;;12.90;100.00
11448;BME280;43755;49.736;8.734;2022-09-21T09:55:24;98804.81;;;12.80;96.18
11448;BME280;43755;49.736;8.734;2022-09-21T09:57:30;98801.97;;;12.84;98.97
11448;BME280;43755;49.736;8.734;2022-09-21T09:59:35;98806.22;;;12.90;100.00
11448;BME280;43755;49.736;8.734;2022-09-21T10:01:39;98805.47;;;13.08;95.25
11448;BME280;43755;49.736;8.734;2022-09-21T10:03:41;98798.22;;;13.35;94.22
11448;BME280;43755;49.736;8.734;2022-09-21T10:05:43;98803.53;;;13.55;96.88
11448;BME280;43755;49.736;8.734;2022-09-21T10:07:47;98798.69;;;13.44;97.21
11448;BME280;43755;49.736;8.734;2022-09-21T10:09:48;98798.81;;;13.41;88.71
11448;BME280;43755;49.736;8.734;2022-09-21T10:11:51;98806.75;;;13.43;87.84
11448;BME280;43755;49.736;8.734;2022-09-21T10:13:52;98805.63;;;13.69;91.65
11448;BME280;43755;49.736;8.734;2022-09-21T10:15:56;98803.81;;;13.49;94.87
11448;BME280;43755;49.736;8.734;2022-09-21T10:18:04;98802.38;;;13.62;97.56
11448;BME280;43755;49.736;8.734;2022-09-21T10:20:15;98801.78;;;13.76;91.72
11448;BME280;43755;49.736;8.734;2022-09-21T10:22:18;98797.06;;;14.03;89.13
11448;BME280;43755;49.736;8.734;2022-09-21T10:24:23;98793.94;;;14.13;90.76
11448;BME280;43755;49.736;8.734;2022-09-21T10:26:30;98797.34;;;14.37;90.49
11448;BME280;43755;49.736;8.734;2022-09-21T10:28:35;98790.56;;;14.86;87.38
11448;BME280;43755;49.736;8.734;2022-09-21T10:30:37;98792.59;;;15.36;78.69
11448;BME280;43755;49.736;8.734;2022-09-21T10:32:53;98794.31;;;15.20;80.32
11448;BME280;43755;49.736;8.734;2022-09-21T10:35:10;98793.53;;;14.80;73.98
11448;BME280;43755;49.736;8.734;2022-09-21T10:37:24;98790.66;;;15.21;80.95
11448;BME280;43755;49.736;8.734;2022-09-21T10:39:29;98790.63;;;15.39;77.79
11448;BME280;43755;49.736;8.734;2022-09-21T10:41:31;98795.53;;;15.48;72.46
11448;BME280;43755;49.736;8.734;2022-09-21T10:43:34;98793.06;;;15.44;72.13
11448;BME280;43755;49.736;8.734;2022-09-21T10:45:52;98786.38;;;15.54;72.67
11448;BME280;43755;49.736;8.734;2022-09-21T10:47:56;98790.50;;;15.42;81.43
11448;BME280;43755;49.736;8.734;2022-09-21T10:50:00;98798.66;;;14.66;84.63
11448;BME280;43755;49.736;8.734;2022-09-21T10:52:02;98790.16;;;13.99;85.91
11448;BME280;43755;49.736;8.734;2022-09-21T10:54:06;98788.50;;;14.35;90.40
11448;BME280;43755;49.736;8.734;2022-09-21T10:56:15;98782.66;;;14.85;86.51
11448;BME280;43755;49.736;8.734;2022-09-21T10:58:18;98785.03;;;14.53;84.76